Terminal Aerodrome Forecast
Issued by NWS

Home | Current Version | Previous Version | Text Only | Print | Product List | Glossary On
Versions: 1 2 3 4 5 6 7 8 9 10 11 12 13
000
FTUS45 KBOI 252328
TAFBKE
TAF
KBKE 252328Z 2600/2624 32015G25KT P6SM -SHRA BKN060 BKN100
     FM260300 31007KT P6SM VCSH BKN080
     FM261500 32015G23KT P6SM BKN100=

USA.gov is the U.S. government's official web portal to all federal, state and local government web resources and services.